Tables

Today Raw
Time Temp (F) Dwpt (F) Hum (%) Pres (inHg) Wnd Dir Wnd Spd (mph) Wnd Spd Gst (mph) Solr Rad (W/m^2) Cldbs (ft) Prcp Dly (in)
10:40 84.0 23.9 11 29.95 SSE 0.7 2.5 294.84 14059 0.0
10:35 83.7 23.7 11 29.95 SE 1.3 2.5 278.04 14036 0.0
10:29 83.5 25.5 12 29.95 South 2.2 2.5 266.74 13582 0.0
10:24 82.9 23.2 11 29.95 SE 0.0 0.0 254.18 13968 0.0
10:19 82.8 25.0 12 29.95 SE 0.0 0.0 243.35 13536 0.0
10:14 82.4 24.8 12 29.96 SE 2.2 4.9 230.4 13491 0.0
10:09 81.9 22.3 11 29.96 SSE 3.1 4.9 219.35 13945 0.0
10:04 81.5 19.8 10 29.96 ESE 3.1 4.9 209.28 14423 0.0
09:59 80.8 21.4 11 29.96 South 1.6 4.9 196.43 13900 0.0
09:54 80.2 18.9 10 29.95 SE 1.8 2.5 186.46 14332 0.0
09:49 79.7 22.6 12 29.96 SE 0.0 0.0 175.91 13377 0.0
09:44 79.2 18.0 10 29.96 SSE 1.3 2.5 166.44 14309 0.0
09:39 78.8 19.9 11 29.96 SE 2.2 2.5 156.34 13786 0.0
09:34 78.3 21.6 12 29.96 ESE 2.2 2.5 147.31 13286 0.0
09:29 78.1 21.4 12 29.96 SE 0.7 2.5 137.46 13286 0.0
09:24 77.7 21.2 12 29.96 SE 2.9 4.9 128.52 13241 0.0
09:19 77.2 20.7 12 29.96 SE 3.1 4.9 119.81 13241 0.0
09:14 76.3 23.7 14 29.96 ESE 0.0 0.0 111.92 12355 0.0
09:08 75.6 23.0 14 29.96 ESE 0.7 2.5 105.6 12355 0.0
09:03 74.7 22.3 14 29.96 SE 0.9 2.5 97.65 12309 0.0
08:58 73.6 23.2 15 29.96 ESE 0.0 0.0 91.9 11855 0.0
08:53 72.7 23.9 16 29.95 ESE 3.1 4.9 86.88 11491 0.0
08:48 72.1 16.7 12 29.95 ESE 2.9 4.9 82.9 12991 0.0
08:43 71.6 12.2 10 29.96 ESE 2.5 2.5 79.97 13900 0.0
08:38 71.2 14.0 11 29.95 ESE 2.9 7.6 78.99 13400 0.0
08:33 70.9 13.8 11 29.95 East 0.9 2.5 75.73 13377 0.0
08:28 70.5 17.4 13 29.96 ESE 2.5 4.9 74.17 12468 0.0
08:23 70.2 15.3 12 29.95 ESE 0.0 0.0 72.04 12877 0.0
08:18 70.0 18.7 14 29.95 ESE 0.7 2.5 69.48 12059 0.0
08:13 69.6 19.9 15 29.95 ESE 1.3 2.5 66.88 11695 0.0
08:08 69.1 21.0 16 29.95 ESE 1.6 2.5 64.45 11332 0.0
08:03 68.5 22.1 17 29.95 ESE 1.3 2.5 61.89 10945 0.0
07:57 68.0 21.6 17 29.95 SE 0.9 2.5 58.89 10945 0.0
07:52 67.3 21.0 17 29.95 ESE 0.0 0.0 55.85 10923 0.0
07:47 66.4 20.3 17 29.95 ESE 0.0 0.0 52.38 10877 0.0
07:42 65.8 21.2 18 29.94 ESE 0.0 0.0 49.51 10536 0.0
07:37 65.3 22.1 19 29.94 ESE 1.6 2.5 45.91 10218 0.0
07:32 64.8 21.6 19 29.95 ESE 0.0 0.0 42.4 10218 0.0
07:27 64.2 22.3 20 29.94 East 0.0 0.0 38.23 9923 0.0
07:22 63.9 18.3 17 29.94 ESE 1.8 2.5 34.06 10764 0.0
07:17 63.5 16.5 16 29.94 East 2.2 2.5 29.24 11082 0.0
07:12 63.1 14.7 15 29.94 ESE 1.6 2.5 24.47 11400 0.0
07:07 63.1 14.7 15 29.94 ESE 0.9 2.5 19.43 11400 0.0
07:02 63.0 14.5 15 29.94 ESE 0.7 2.5 10.21 11423 0.0
06:56 63.1 14.7 15 29.94 East 0.7 2.5 4.49 11400 0.0
06:51 63.1 14.7 15 29.94 East 1.3 2.5 0.33 11400 0.0
06:46 63.1 14.7 15 29.93 East 1.3 2.5 0.0 11400 0.0
06:41 63.3 14.9 15 29.94 East 0.2 2.5 0.0 11400 0.0
06:36 63.3 14.9 15 29.93 ESE 2.2 2.5 0.0 11400 0.0
06:31 63.3 14.9 15 29.93 ESE 1.3 2.5 0.0 11400 0.0
06:26 63.3 14.9 15 29.93 ESE 0.7 2.5 0.0 11400 0.0
06:20 63.3 14.9 15 29.93 ESE 0.9 2.5 0.0 11400 0.0
06:15 63.3 14.9 15 29.93 East 1.8 2.5 0.0 11400 0.0
06:10 63.3 14.9 15 29.93 SE 1.6 2.5 0.0 11400 0.0
06:05 63.3 14.9 15 29.93 ESE 1.6 2.5 0.0 11400 0.0
06:00 63.3 14.9 15 29.93 ESE 2.5 4.9 0.0 11400 0.0
05:55 63.3 14.9 15 29.93 SE 1.3 2.5 0.0 11400 0.0
05:50 63.3 14.9 15 29.93 ESE 1.3 2.5 0.0 11400 0.0
05:45 63.3 14.9 15 29.93 ESE 2.5 2.5 0.0 11400 0.0
05:40 63.3 14.9 15 29.92 ESE 1.3 2.5 0.0 11400 0.0
05:35 63.1 16.2 16 29.92 SE 1.3 2.5 0.0 11059 0.0
05:30 63.1 16.2 16 29.92 ESE 0.9 2.5 0.0 11059 0.0
05:24 63.1 16.2 16 29.92 SE 0.9 2.5 0.0 11059 0.0
05:19 63.3 16.3 16 29.92 East 0.7 2.5 0.0 11082 0.0
05:14 63.3 16.3 16 29.92 ESE 1.6 2.5 0.0 11082 0.0
05:09 63.3 16.3 16 29.92 ESE 2.9 4.9 0.0 11082 0.0
05:04 63.7 16.7 16 29.92 ENE 1.6 2.5 0.0 11082 0.0
04:59 64.0 17.1 16 29.92 East 2.9 4.9 0.0 11059 0.0
04:54 64.4 15.8 15 29.92 East 3.1 4.9 0.0 11445 0.0
04:49 64.9 17.8 16 29.92 ENE 2.2 2.5 0.0 11105 0.0
04:44 65.3 19.4 17 29.92 East 0.7 2.5 0.0 10832 0.0
04:39 65.7 16.7 15 29.92 East 0.0 0.0 0.0 11536 0.0
04:33 66.0 18.5 16 29.92 ESE 0.0 0.0 0.0 11195 0.0
04:28 65.8 18.5 16 29.92 SE 0.0 0.0 0.0 11150 0.0
04:23 65.7 16.7 15 29.92 SE 2.2 2.5 0.0 11536 0.0
04:18 65.5 16.7 15 29.92 SE 0.9 2.5 0.0 11491 0.0
04:13 65.1 16.3 15 29.91 ESE 1.8 2.5 0.0 11491 0.0
04:08 64.6 16.0 15 29.91 SE 2.2 4.9 0.0 11445 0.0
04:03 64.0 17.1 16 29.92 SSE 3.8 4.9 0.0 11059 0.0
03:58 63.5 16.5 16 29.91 SSW 0.9 2.5 0.0 11082 0.0
03:53 63.0 17.4 17 29.91 South 6.5 7.6 0.0 10764 0.0
03:48 62.8 14.5 15 29.91 SSE 4.0 4.9 0.0 11377 0.0
03:42 62.8 16.0 16 29.91 SE 1.3 2.5 0.0 11036 0.0
03:37 62.8 16.0 16 29.91 SE 0.0 0.0 0.0 11036 0.0
03:32 63.0 18.9 18 29.9 ESE 0.0 0.0 0.0 10423 0.0
03:27 63.3 20.3 19 29.91 ESE 0.0 0.0 0.0 10173 0.0
03:22 63.5 18.0 17 29.91 SSE 0.0 0.0 0.0 10741 0.0
03:17 63.3 16.3 16 29.91 SSE 0.7 2.5 0.0 11082 0.0
03:12 63.1 16.2 16 29.9 SE 0.9 2.5 0.0 11059 0.0
03:07 63.3 19.0 18 29.91 ESE 0.0 0.0 0.0 10468 0.0
03:02 63.3 19.0 18 29.9 ESE 0.0 0.0 0.0 10468 0.0
02:57 63.1 17.6 17 29.91 East 0.0 0.0 0.0 10741 0.0
02:52 63.1 19.0 18 29.9 East 0.0 0.0 0.0 10423 0.0
02:47 63.3 19.0 18 29.91 ESE 0.0 0.0 0.0 10468 0.0
02:41 63.3 17.8 17 29.91 East 0.0 0.0 0.0 10741 0.0
02:36 63.1 16.2 16 29.91 East 0.0 0.0 0.0 11059 0.0
02:31 63.1 16.2 16 29.9 East 0.0 0.0 0.0 11059 0.0
02:26 63.1 16.2 16 29.9 East 0.0 0.0 0.0 11059 0.0
02:21 63.3 16.3 16 29.91 East 0.0 0.0 0.0 11082 0.0
02:16 63.5 16.5 16 29.91 ENE 0.0 0.0 0.0 11082 0.0
02:11 63.9 18.3 17 29.91 East 0.0 0.0 0.0 10764 0.0
02:06 64.2 17.1 16 29.91 East 0.0 0.0 0.0 11105 0.0
02:01 64.6 18.9 17 29.91 East 0.0 0.0 0.0 10786 0.0
01:56 64.8 16.0 15 29.91 ENE 0.0 0.0 0.0 11491 0.0
01:51 64.8 19.0 17 29.91 NE 0.0 0.0 0.0 10809 0.0
01:46 64.8 19.0 17 29.91 NNE 1.3 2.5 0.0 10809 0.0
01:41 64.9 19.0 17 29.91 ENE 0.0 0.0 0.0 10832 0.0
01:36 65.1 17.8 16 29.91 NE 0.0 0.0 0.0 11150 0.0
01:34 65.1 17.8 16 29.91 ENE 0.0 0.0 0.0 11150 0.0
01:29 65.5 20.8 18 29.91 ENE 0.0 0.0 0.0 10559 0.0
01:24 65.8 19.8 17 29.91 East 0.0 0.0 0.0 10855 0.0
01:19 66.2 20.1 17 29.91 SE 0.0 0.0 0.0 10877 0.0
01:14 66.6 20.5 17 29.91 ESE 0.0 0.0 0.0 10877 0.0
01:09 66.9 20.7 17 29.9 ESE 0.0 0.0 0.0 10900 0.0
01:04 67.1 18.0 15 29.9 East 0.0 0.0 0.0 11559 0.0
00:59 67.1 18.0 15 29.9 East 0.0 0.0 0.0 11559 0.0
00:54 67.3 18.1 15 29.9 East 0.0 0.0 0.0 11582 0.0
00:49 67.5 18.3 15 29.9 East 0.0 0.0 0.0 11582 0.0
00:44 67.6 18.3 15 29.9 East 0.0 0.0 0.0 11605 0.0
00:39 67.6 16.7 14 29.89 East 0.0 0.0 0.0 11968 0.0
00:33 67.6 18.3 15 29.89 East 0.0 0.0 0.0 11605 0.0
00:28 68.0 18.7 15 29.9 East 0.0 0.0 0.0 11605 0.0
00:23 68.4 17.4 14 29.89 East 0.0 0.0 0.0 11991 0.0
00:18 68.7 19.2 15 29.9 East 0.0 0.0 0.0 11650 0.0
00:13 69.1 19.6 15 29.89 ESE 0.0 0.0 0.0 11650 0.0
00:08 69.6 19.9 15 29.89 East 0.0 0.0 0.0 11695 0.0
00:03 69.8 25.7 19 29.89 East 0.7 2.5 0.0 10423 0.0
Today Summary
Cldbs (ft) Dwpt (F) Hum (%) Prcp Dly (in) Pres (inHg) Solr Rad (W/m^2) Temp (F) Wnd Spd (mph) Wnd Spd Gst (mph)
Min 9923.0 12.2 10.0 0.0 29.89 0.0 62.8 0.0 0.0
Avg 11614.38 18.29 15.14 0.0 29.93 40.13 67.63 1.01 1.82
Max 14423.0 25.7 20.0 0.0 29.96 294.84 84.0 6.5 7.6
Day Summary
Cldbs (ft) Dwpt (F) Hum (%) Prcp Dly (in) Pres (inHg) Solr Rad (W/m^2) Temp (F) Wnd Spd (mph) Wnd Spd Gst (mph)
Min 9764.0 12.2 10.0 0.0 29.81 0.0 59.9 0.0 0.0
Avg 12426.4 20.55 13.93 0.0 29.88 129.21 73.46 1.59 2.45
Max 14968.0 31.5 20.0 0.0 29.96 540.21 91.0 9.2 12.5
Week Summary
Cldbs (ft) Dwpt (F) Hum (%) Prcp Dly (in) Pres (inHg) Solr Rad (W/m^2) Temp (F) Wnd Spd (mph) Wnd Spd Gst (mph)
Min 2400.0 10.6 10.0 0.0 29.71 0.0 51.4 0.0 0.0
Avg 11128.11 20.88 17.74 0.0 29.85 135.21 68.09 1.6 2.4
Max 14968.0 47.1 72.0 0.02 30.02 638.74 91.0 11.9 15.0
Month Summary
Cldbs (ft) Dwpt (F) Hum (%) Prcp Dly (in) Pres (inHg) Solr Rad (W/m^2) Temp (F) Wnd Spd (mph) Wnd Spd Gst (mph)
Min 2400.0 10.6 10.0 0.0 29.68 0.0 51.4 0.0 0.0
Avg 12319.66 25.56 15.48 0.0 29.84 163.94 78.0 1.83 2.68
Max 15832.0 54.5 72.0 0.02 30.09 793.78 106.9 31.3 37.6
Year Summary
Cldbs (ft) Dwpt (F) Hum (%) Prcp Dly (in) Pres (inHg) Solr Rad (W/m^2) Temp (F) Wnd Spd (mph) Wnd Spd Gst (mph)
Min 423.0 9.7 10.0 0.0 29.29 0.0 31.1 0.0 0.0
Avg 7194.64 33.77 42.94 0.02 30.0 128.49 63.67 1.44 2.2
Max 15832.0 65.7 99.0 1.32 30.64 835.58 106.9 35.3 45.0